sensor_id;sensor_type;location;lat;lon;timestamp;pressure;altitude;pressure_sealevel;temperature;humidity
56182;BME280;51963;46.052;14.544;2023-09-07T20:51:58;98818.00;;;15.80;100.00
56182;BME280;51963;46.052;14.544;2023-09-07T20:54:24;98824.16;;;15.80;100.00
56182;BME280;51963;46.052;14.544;2023-09-07T20:56:49;98812.66;;;15.80;100.00
56182;BME280;51963;46.052;14.544;2023-09-07T20:59:27;98819.66;;;15.81;100.00
56182;BME280;51963;46.052;14.544;2023-09-07T21:01:53;98820.91;;;15.78;100.00
56182;BME280;51963;46.052;14.544;2023-09-07T21:04:18;98823.16;;;15.75;100.00
56182;BME280;51963;46.052;14.544;2023-09-07T21:06:44;98827.44;;;15.82;100.00
56182;BME280;51963;46.052;14.544;2023-09-07T21:09:11;98821.31;;;15.89;100.00
56182;BME280;51963;46.052;14.544;2023-09-07T21:11:43;98807.81;;;15.70;100.00
56182;BME280;51963;46.052;14.544;2023-09-07T21:14:10;98833.38;;;15.78;100.00
56182;BME280;51963;46.052;14.544;2023-09-07T21:16:36;98830.31;;;15.81;100.00
56182;BME280;51963;46.052;14.544;2023-09-07T21:19:04;98828.28;;;15.76;100.00
56182;BME280;51963;46.052;14.544;2023-09-07T21:21:30;98833.63;;;15.76;100.00
56182;BME280;51963;46.052;14.544;2023-09-07T21:23:55;98819.50;;;15.62;100.00
56182;BME280;51963;46.052;14.544;2023-09-07T21:26:21;98830.97;;;15.69;100.00
56182;BME280;51963;46.052;14.544;2023-09-07T21:28:47;98808.66;;;15.57;100.00
56182;BME280;51963;46.052;14.544;2023-09-07T21:31:13;98824.81;;;15.62;100.00
56182;BME280;51963;46.052;14.544;2023-09-07T21:33:39;98833.63;;;15.69;100.00
56182;BME280;51963;46.052;14.544;2023-09-07T21:36:06;98827.50;;;15.69;100.00
56182;BME280;51963;46.052;14.544;2023-09-07T21:38:32;98818.66;;;15.68;100.00
56182;BME280;51963;46.052;14.544;2023-09-07T21:40:58;98828.66;;;15.80;100.00
56182;BME280;51963;46.052;14.544;2023-09-07T21:43:24;98826.84;;;15.74;100.00
56182;BME280;51963;46.052;14.544;2023-09-07T21:45:51;98825.03;;;15.67;100.00
56182;BME280;51963;46.052;14.544;2023-09-07T21:48:17;98828.47;;;15.75;100.00
56182;BME280;51963;46.052;14.544;2023-09-07T21:50:43;98827.06;;;15.65;100.00
56182;BME280;51963;46.052;14.544;2023-09-07T21:53:09;98818.09;;;15.53;100.00
56182;BME280;51963;46.052;14.544;2023-09-07T21:55:35;98825.84;;;15.61;100.00
56182;BME280;51963;46.052;14.544;2023-09-07T21:58:01;98822.38;;;15.61;100.00
56182;BME280;51963;46.052;14.544;2023-09-07T22:00:27;98818.53;;;15.43;100.00
56182;BME280;51963;46.052;14.544;2023-09-07T22:02:53;98823.00;;;15.56;100.00
56182;BME280;51963;46.052;14.544;2023-09-07T22:05:19;98826.69;;;15.55;100.00
56182;BME280;51963;46.052;14.544;2023-09-07T22:07:45;98819.72;;;15.54;100.00
56182;BME280;51963;46.052;14.544;2023-09-07T22:10:10;98818.28;;;15.58;100.00
56182;BME280;51963;46.052;14.544;2023-09-07T22:12:39;98832.03;;;15.55;100.00
56182;BME280;51963;46.052;14.544;2023-09-07T22:15:05;98835.31;;;15.44;100.00
56182;BME280;51963;46.052;14.544;2023-09-07T22:17:31;98842.31;;;15.38;100.00
56182;BME280;51963;46.052;14.544;2023-09-07T22:19:57;98828.38;;;15.29;100.00
56182;BME280;51963;46.052;14.544;2023-09-07T22:22:26;98827.16;;;15.32;100.00
56182;BME280;51963;46.052;14.544;2023-09-07T22:24:53;98818.94;;;15.33;100.00
56182;BME280;51963;46.052;14.544;2023-09-07T22:27:19;98823.84;;;15.36;100.00
56182;BME280;51963;46.052;14.544;2023-09-07T22:29:45;98831.06;;;15.36;100.00
56182;BME280;51963;46.052;14.544;2023-09-07T22:32:11;98813.44;;;15.28;100.00
56182;BME280;51963;46.052;14.544;2023-09-07T22:34:37;98830.03;;;15.23;100.00
56182;BME280;51963;46.052;14.544;2023-09-07T22:37:03;98816.53;;;15.11;100.00
56182;BME280;51963;46.052;14.544;2023-09-07T22:39:29;98803.63;;;15.08;100.00
56182;BME280;51963;46.052;14.544;2023-09-07T22:41:54;98809.16;;;15.00;100.00
56182;BME280;51963;46.052;14.544;2023-09-07T22:44:20;98803.41;;;15.03;100.00
56182;BME280;51963;46.052;14.544;2023-09-07T22:46:46;98807.72;;;14.98;100.00
56182;BME280;51963;46.052;14.544;2023-09-07T22:49:12;98806.09;;;14.90;100.00
56182;BME280;51963;46.052;14.544;2023-09-07T22:51:39;98801.16;;;14.73;100.00
56182;BME280;51963;46.052;14.544;2023-09-07T22:54:05;98828.41;;;14.95;100.00
56182;BME280;51963;46.052;14.544;2023-09-07T22:56:31;98814.09;;;14.83;100.00
56182;BME280;51963;46.052;14.544;2023-09-07T22:58:58;98822.66;;;14.78;100.00
56182;BME280;51963;46.052;14.544;2023-09-07T23:01:24;98821.81;;;14.64;100.00
56182;BME280;51963;46.052;14.544;2023-09-07T23:03:50;98825.94;;;14.74;100.00
56182;BME280;51963;46.052;14.544;2023-09-07T23:06:16;98831.28;;;14.87;100.00
56182;BME280;51963;46.052;14.544;2023-09-07T23:08:42;98794.44;;;14.71;100.00
56182;BME280;51963;46.052;14.544;2023-09-07T23:11:08;98822.69;;;14.72;100.00
56182;BME280;51963;46.052;14.544;2023-09-07T23:13:34;98821.59;;;14.66;100.00
56182;BME280;51963;46.052;14.544;2023-09-07T23:16:01;98812.81;;;14.65;100.00
56182;BME280;51963;46.052;14.544;2023-09-07T23:18:27;98809.53;;;14.63;100.00
56182;BME280;51963;46.052;14.544;2023-09-07T23:20:53;98824.66;;;14.63;100.00
56182;BME280;51963;46.052;14.544;2023-09-07T23:23:18;98816.06;;;14.61;100.00
56182;BME280;51963;46.052;14.544;2023-09-07T23:25:44;98828.41;;;14.75;100.00
56182;BME280;51963;46.052;14.544;2023-09-07T23:28:10;98820.56;;;14.53;100.00
56182;BME280;51963;46.052;14.544;2023-09-07T23:30:36;98799.69;;;14.50;100.00
56182;BME280;51963;46.052;14.544;2023-09-07T23:33:03;98808.91;;;14.48;100.00
56182;BME280;51963;46.052;14.544;2023-09-07T23:35:31;98809.09;;;14.46;100.00
56182;BME280;51963;46.052;14.544;2023-09-07T23:37:57;98821.19;;;14.62;100.00
56182;BME280;51963;46.052;14.544;2023-09-07T23:40:23;98815.22;;;14.40;100.00
56182;BME280;51963;46.052;14.544;2023-09-07T23:42:49;98812.75;;;14.25;100.00
56182;BME280;51963;46.052;14.544;2023-09-07T23:45:15;98829.91;;;14.22;100.00
56182;BME280;51963;46.052;14.544;2023-09-07T23:47:41;98806.56;;;14.11;100.00
56182;BME280;51963;46.052;14.544;2023-09-07T23:50:07;98819.44;;;14.14;100.00
56182;BME280;51963;46.052;14.544;2023-09-07T23:52:34;98822.53;;;14.18;100.00
56182;BME280;51963;46.052;14.544;2023-09-07T23:55:01;98828.25;;;14.21;100.00
56182;BME280;51963;46.052;14.544;2023-09-07T23:57:29;98825.03;;;14.33;100.00
56182;BME280;51963;46.052;14.544;2023-09-07T23:59:55;98826.63;;;14.20;100.00
